createdAt,value
2022-09-17T00:00:39.558Z,13.12
2022-09-17T00:03:07.749Z,13.15
2022-09-17T00:05:37.358Z,13.14
2022-09-17T00:08:09.538Z,13.19
2022-09-17T00:10:41.749Z,13.16
2022-09-17T00:13:09.565Z,13.17
2022-09-17T00:15:46.780Z,13.27
2022-09-17T00:18:14.968Z,13.24
2022-09-17T00:20:44.527Z,13.22
2022-09-17T00:23:12.530Z,13.17
2022-09-17T00:25:40.659Z,13.17
2022-09-17T00:28:07.329Z,13.17
2022-09-17T00:30:34.180Z,13.14
2022-09-17T00:33:00.940Z,13.11
2022-09-17T00:35:28.155Z,13.17
2022-09-17T00:37:54.760Z,13.16
2022-09-17T00:40:21.787Z,13.07
2022-09-17T00:42:48.440Z,13.04
2022-09-17T00:45:15.611Z,13.10
2022-09-17T00:47:46.243Z,13.10
2022-09-17T00:50:19.413Z,13.11
2022-09-17T00:52:50.750Z,13.01
2022-09-17T00:55:30.994Z,12.97
2022-09-17T00:58:01.312Z,13.03
2022-09-17T01:00:28.457Z,13.02
2022-09-17T01:02:55.068Z,12.98
2022-09-17T01:05:46.204Z,13.04
2022-09-17T01:08:34.112Z,13.10
2022-09-17T01:11:15.185Z,13.09
2022-09-17T01:14:08.749Z,13.06
2022-09-17T01:16:42.473Z,13.13
2022-09-17T01:19:29.582Z,12.98
2022-09-17T01:22:10.811Z,13.03
2022-09-17T01:24:56.238Z,13.10
2022-09-17T01:27:45.556Z,12.98
2022-09-17T01:30:33.436Z,13.06
2022-09-17T01:33:38.717Z,13.06
2022-09-17T01:36:30.982Z,13.01
2022-09-17T01:39:03.149Z,13.01
2022-09-17T01:41:53.047Z,13.01
2022-09-17T01:44:44.403Z,13.03
2022-09-17T01:47:21.200Z,13.00
2022-09-17T01:49:52.683Z,12.99
2022-09-17T01:52:20.876Z,13.00
2022-09-17T01:54:53.042Z,12.92
2022-09-17T01:57:40.522Z,12.79
2022-09-17T02:00:17.639Z,12.85
2022-09-17T02:03:12.601Z,12.98
2022-09-17T02:05:49.711Z,12.79
2022-09-17T02:08:20.853Z,12.78
2022-09-17T02:10:58.737Z,12.73
2022-09-17T02:13:44.164Z,12.77
2022-09-17T02:16:20.899Z,12.77
2022-09-17T02:19:14.125Z,12.72
2022-09-17T02:22:03.616Z,12.67
2022-09-17T02:24:49.186Z,12.72
2022-09-17T02:27:30.115Z,12.73
2022-09-17T02:29:56.782Z,12.59
2022-09-17T02:32:24.877Z,12.65
2022-09-17T02:34:51.482Z,12.68
2022-09-17T02:37:18.092Z,12.64
2022-09-17T02:39:44.775Z,12.74
2022-09-17T02:42:15.913Z,12.66
2022-09-17T02:44:49.471Z,12.52
2022-09-17T02:47:28.912Z,12.40
2022-09-17T02:50:14.892Z,12.41
2022-09-17T02:53:07.861Z,12.37
2022-09-17T02:55:46.353Z,12.41
2022-09-17T02:58:12.837Z,12.45
2022-09-17T03:00:40.534Z,12.38
2022-09-17T03:03:18.182Z,12.45
2022-09-17T03:05:45.539Z,12.38
2022-09-17T03:08:18.569Z,12.37
2022-09-17T03:10:45.154Z,12.23
2022-09-17T03:13:11.751Z,12.27
2022-09-17T03:15:38.401Z,12.23
2022-09-17T03:18:05.010Z,12.24
2022-09-17T03:20:31.541Z,12.12
2022-09-17T03:22:58.115Z,12.25
2022-09-17T03:25:24.871Z,12.21
2022-09-17T03:27:52.448Z,12.14
2022-09-17T03:30:19.413Z,12.07
2022-09-17T03:32:46.505Z,12.13
2022-09-17T03:35:13.165Z,12.07
2022-09-17T03:37:39.714Z,11.97
2022-09-17T03:40:07.207Z,11.97
2022-09-17T03:42:33.814Z,11.98
2022-09-17T03:45:00.352Z,11.96
2022-09-17T03:47:26.911Z,12.03
2022-09-17T03:49:53.431Z,11.98
2022-09-17T03:52:20.533Z,11.92
2022-09-17T03:54:47.211Z,11.92
2022-09-17T03:57:14.178Z,11.89
2022-09-17T03:59:40.727Z,11.92
2022-09-17T04:02:07.370Z,11.97
2022-09-17T04:04:34.176Z,11.93
2022-09-17T04:07:00.818Z,11.92
2022-09-17T04:09:27.497Z,11.88
2022-09-17T04:11:54.052Z,11.93
2022-09-17T04:14:20.578Z,11.89
2022-09-17T04:16:47.403Z,11.84
2022-09-17T04:19:14.047Z,11.96
2022-09-17T04:21:40.574Z,11.91
2022-09-17T04:24:07.315Z,11.89
2022-09-17T04:26:33.886Z,11.95
2022-09-17T04:29:01.133Z,11.90
2022-09-17T04:31:27.763Z,11.93
2022-09-17T04:33:54.386Z,11.90
2022-09-17T04:36:21.079Z,11.89
2022-09-17T04:38:50.936Z,11.92
2022-09-17T04:41:17.509Z,11.95
2022-09-17T04:43:44.108Z,12.01
2022-09-17T04:46:11.046Z,12.03
2022-09-17T04:48:37.939Z,11.95
2022-09-17T04:51:04.757Z,11.98
2022-09-17T04:53:31.315Z,11.96
2022-09-17T04:55:57.865Z,11.98
2022-09-17T04:58:24.411Z,11.99
2022-09-17T05:00:51.000Z,12.05
2022-09-17T05:03:17.768Z,11.94
2022-09-17T05:05:44.298Z,12.03
2022-09-17T05:08:11.801Z,11.95
2022-09-17T05:10:38.393Z,11.99
2022-09-17T05:13:04.964Z,12.03
2022-09-17T05:15:31.561Z,12.04
2022-09-17T05:17:58.114Z,12.10
2022-09-17T05:20:24.732Z,11.96
2022-09-17T05:22:52.503Z,12.03
2022-09-17T05:25:24.921Z,12.01
2022-09-17T05:27:53.191Z,11.98
2022-09-17T05:30:20.067Z,12.12
2022-09-17T05:32:47.160Z,12.19
2022-09-17T05:35:14.050Z,12.11
2022-09-17T05:37:40.797Z,12.08
2022-09-17T05:40:08.784Z,12.03
2022-09-17T05:42:35.443Z,12.09
2022-09-17T05:45:02.009Z,12.18
2022-09-17T05:47:28.587Z,12.16
2022-09-17T05:49:55.134Z,12.23
2022-09-17T05:52:21.703Z,12.25
2022-09-17T05:54:48.662Z,12.24
2022-09-17T05:57:16.027Z,12.33
2022-09-17T05:59:42.813Z,12.38
2022-09-17T06:02:13.770Z,12.56
2022-09-17T06:04:40.480Z,12.54
2022-09-17T06:07:08.542Z,12.61
2022-09-17T06:09:37.509Z,12.59
2022-09-17T06:12:07.425Z,12.54
2022-09-17T06:14:33.986Z,12.69
2022-09-17T06:17:00.518Z,12.71
2022-09-17T06:19:27.912Z,12.73
2022-09-17T06:21:54.864Z,12.58
2022-09-17T06:24:21.392Z,12.85
2022-09-17T06:26:47.958Z,13.05
2022-09-17T06:29:15.261Z,13.07
2022-09-17T06:31:44.798Z,13.20
2022-09-17T06:34:12.196Z,13.47
2022-09-17T06:36:38.849Z,13.63
2022-09-17T06:39:05.591Z,13.93
2022-09-17T06:41:33.086Z,14.10
2022-09-17T06:44:00.000Z,13.78
2022-09-17T06:46:26.825Z,14.00
2022-09-17T06:48:53.444Z,13.84
2022-09-17T06:51:20.055Z,13.49
2022-09-17T06:53:46.647Z,13.39
2022-09-17T06:56:13.283Z,13.15
2022-09-17T06:58:43.803Z,13.04
2022-09-17T07:01:12.100Z,13.07
2022-09-17T07:03:39.075Z,13.15
2022-09-17T07:06:10.213Z,12.88
2022-09-17T07:08:37.848Z,12.94
2022-09-17T07:11:04.471Z,12.90
2022-09-17T07:13:31.259Z,12.84
2022-09-17T07:16:01.067Z,12.90
2022-09-17T07:18:28.165Z,12.87
2022-09-17T07:21:03.692Z,13.00
2022-09-17T07:23:32.374Z,12.92
2022-09-17T07:26:12.947Z,12.92
2022-09-17T07:28:40.541Z,13.07
2022-09-17T07:31:10.247Z,12.92
2022-09-17T07:33:40.342Z,13.10
2022-09-17T07:36:10.314Z,13.10
2022-09-17T07:38:37.197Z,13.11
2022-09-17T07:41:12.937Z,13.21
2022-09-17T07:43:39.728Z,13.17
2022-09-17T07:46:08.327Z,13.41
2022-09-17T07:48:35.210Z,13.24
2022-09-17T07:51:02.084Z,13.42
2022-09-17T07:53:28.719Z,13.40
2022-09-17T07:56:00.038Z,13.62
2022-09-17T07:58:34.660Z,13.65
2022-09-17T08:01:08.822Z,13.77
2022-09-17T08:03:36.237Z,13.89
2022-09-17T08:06:07.139Z,13.97
2022-09-17T08:08:35.825Z,14.00
2022-09-17T08:11:08.188Z,14.24
2022-09-17T08:13:35.647Z,14.30
2022-09-17T08:16:07.493Z,14.32
2022-09-17T08:18:36.512Z,14.12
2022-09-17T08:21:05.434Z,13.84
2022-09-17T08:23:38.585Z,13.99
2022-09-17T08:26:08.579Z,13.84
2022-09-17T08:28:35.634Z,13.78
2022-09-17T08:31:08.312Z,13.92
2022-09-17T08:33:39.875Z,13.99
2022-09-17T08:36:10.141Z,14.18
2022-09-17T08:38:38.639Z,14.03
2022-09-17T08:41:11.992Z,14.11
2022-09-17T08:43:50.547Z,14.12
2022-09-17T08:46:17.152Z,14.21
2022-09-17T08:49:21.768Z,14.38
2022-09-17T08:51:53.287Z,14.21
2022-09-17T08:54:47.940Z,14.51
2022-09-17T08:57:47.172Z,14.41
2022-09-17T09:00:20.407Z,14.46
2022-09-17T09:02:56.628Z,14.70
2022-09-17T09:05:29.602Z,14.68
2022-09-17T09:08:40.739Z,14.56
2022-09-17T09:11:26.287Z,14.55
2022-09-17T09:14:04.076Z,14.47
2022-09-17T09:16:33.714Z,14.48
2022-09-17T09:19:19.440Z,14.09
2022-09-17T09:21:51.042Z,13.99
2022-09-17T09:24:26.568Z,14.21
2022-09-17T09:27:16.953Z,14.25
2022-09-17T09:30:04.557Z,14.16
2022-09-17T09:32:40.095Z,14.21
2022-09-17T09:35:28.430Z,14.13
2022-09-17T09:38:23.223Z,14.19
2022-09-17T09:41:02.598Z,14.02
2022-09-17T09:44:04.691Z,14.04
2022-09-17T09:46:41.488Z,14.24
2022-09-17T09:49:13.976Z,14.59
2022-09-17T09:51:53.763Z,14.23
2022-09-17T09:54:31.431Z,14.43
2022-09-17T09:57:07.466Z,14.57
2022-09-17T09:59:36.278Z,14.54
2022-09-17T10:02:03.340Z,14.50
2022-09-17T10:04:32.172Z,14.53
2022-09-17T10:07:10.608Z,14.75
2022-09-17T10:09:39.704Z,14.56
2022-09-17T10:12:16.296Z,14.42
2022-09-17T10:14:45.047Z,14.37
2022-09-17T10:17:26.133Z,14.66
2022-09-17T10:20:11.338Z,14.56
2022-09-17T10:22:48.016Z,14.46
2022-09-17T10:25:28.575Z,14.49
2022-09-17T10:27:57.798Z,14.28
2022-09-17T10:30:25.986Z,14.43
2022-09-17T10:33:15.644Z,14.20
2022-09-17T10:35:55.491Z,14.24
2022-09-17T10:38:32.213Z,14.32
2022-09-17T10:41:14.292Z,14.53
2022-09-17T10:43:41.632Z,14.55
2022-09-17T10:46:12.245Z,14.83
2022-09-17T10:49:04.289Z,14.57
2022-09-17T10:51:30.844Z,14.63
2022-09-17T10:54:02.890Z,14.59
2022-09-17T10:56:38.078Z,14.36
2022-09-17T10:59:22.823Z,14.62
2022-09-17T11:02:27.935Z,14.83
2022-09-17T11:05:13.766Z,14.86
2022-09-17T11:08:18.870Z,14.83
2022-09-17T11:10:56.684Z,15.03
2022-09-17T11:13:42.070Z,14.78
2022-09-17T11:16:47.654Z,14.79
2022-09-17T11:19:45.537Z,14.83
2022-09-17T11:22:23.210Z,14.30
2022-09-17T11:25:01.511Z,14.36
2022-09-17T11:27:49.823Z,14.57
2022-09-17T11:30:22.230Z,14.26
2022-09-17T11:33:20.928Z,14.24
2022-09-17T11:35:51.949Z,14.21
2022-09-17T11:38:25.522Z,14.04
2022-09-17T11:41:07.351Z,13.90
2022-09-17T11:43:37.771Z,13.92
2022-09-17T11:46:13.362Z,13.84
2022-09-17T11:48:50.870Z,13.86
2022-09-17T11:51:28.933Z,13.98
2022-09-17T11:53:59.194Z,14.05
2022-09-17T11:56:29.626Z,13.95
2022-09-17T11:59:04.712Z,13.86
2022-09-17T12:01:49.235Z,14.01
2022-09-17T12:04:49.771Z,14.18
2022-09-17T12:07:28.311Z,13.87
2022-09-17T12:10:18.197Z,13.81
2022-09-17T12:12:55.861Z,13.81
2022-09-17T12:15:25.817Z,13.89
2022-09-17T12:18:31.786Z,13.84
2022-09-17T12:21:02.755Z,13.81
2022-09-17T12:23:51.355Z,13.72
2022-09-17T12:26:21.015Z,13.78
2022-09-17T12:29:11.442Z,13.67
2022-09-17T12:31:48.699Z,13.81
2022-09-17T12:34:53.554Z,13.85
2022-09-17T12:37:49.414Z,14.00
2022-09-17T12:40:29.486Z,14.49
2022-09-17T12:43:17.977Z,14.55
2022-09-17T12:46:03.200Z,14.61
2022-09-17T12:48:56.074Z,14.64
2022-09-17T12:51:37.775Z,14.65
2022-09-17T12:54:27.261Z,14.79
2022-09-17T12:57:11.829Z,14.55
2022-09-17T13:00:02.691Z,14.54
2022-09-17T13:02:42.284Z,14.56
2022-09-17T13:05:36.125Z,14.63
2022-09-17T13:08:21.738Z,14.37
2022-09-17T13:11:14.302Z,14.10
2022-09-17T13:13:43.763Z,14.00
2022-09-17T13:16:22.722Z,13.84
2022-09-17T13:19:24.495Z,13.76
2022-09-17T13:22:13.812Z,13.70
2022-09-17T13:24:43.085Z,13.70
2022-09-17T13:27:27.894Z,13.64
2022-09-17T13:29:54.376Z,13.58
2022-09-17T13:32:32.947Z,13.47
2022-09-17T13:35:11.478Z,13.38
2022-09-17T13:37:53.760Z,13.41
2022-09-17T13:40:34.346Z,13.36
2022-09-17T13:43:03.971Z,13.45
2022-09-17T13:45:33.760Z,13.36
2022-09-17T13:48:11.549Z,13.25
2022-09-17T13:50:41.008Z,13.24
2022-09-17T13:53:13.480Z,13.27
2022-09-17T13:55:54.710Z,13.23
2022-09-17T13:58:21.192Z,13.19
2022-09-17T14:00:56.607Z,13.36
2022-09-17T14:03:34.279Z,13.24
2022-09-17T14:06:18.020Z,13.17
2022-09-17T14:08:44.657Z,13.22
2022-09-17T14:11:23.690Z,13.29
2022-09-17T14:13:57.253Z,13.30
2022-09-17T14:16:37.249Z,13.20
2022-09-17T14:19:16.481Z,13.15
2022-09-17T14:22:00.495Z,13.17
2022-09-17T14:24:32.204Z,13.13
2022-09-17T14:27:10.331Z,13.06
2022-09-17T14:29:48.778Z,13.11
2022-09-17T14:32:32.332Z,13.00
2022-09-17T14:35:17.895Z,13.11
2022-09-17T14:37:52.898Z,13.18
2022-09-17T14:40:22.077Z,13.11
2022-09-17T14:42:52.480Z,13.19
2022-09-17T14:45:31.360Z,13.13
2022-09-17T14:48:26.247Z,12.92
2022-09-17T14:50:52.896Z,12.58
2022-09-17T14:53:21.057Z,12.56
2022-09-17T14:55:50.313Z,12.47
2022-09-17T14:58:51.875Z,12.51
2022-09-17T15:01:24.961Z,12.52
2022-09-17T15:04:20.174Z,12.53
2022-09-17T15:06:46.752Z,12.56
2022-09-17T15:09:17.111Z,12.44
2022-09-17T15:11:45.250Z,12.20
2022-09-17T15:14:22.171Z,12.20
2022-09-17T15:16:52.180Z,12.04
2022-09-17T15:19:23.858Z,11.95
2022-09-17T15:21:55.076Z,11.88
2022-09-17T15:24:54.902Z,11.75
2022-09-17T15:27:53.332Z,11.68
2022-09-17T15:30:23.102Z,11.56
2022-09-17T15:32:55.456Z,11.45
2022-09-17T15:35:25.363Z,11.47
2022-09-17T15:40:41.790Z,11.42
2022-09-17T15:43:30.779Z,11.43
2022-09-17T15:46:01.570Z,11.33
2022-09-17T15:48:28.081Z,11.39
2022-09-17T15:50:57.240Z,11.30
2022-09-17T15:53:26.698Z,11.27
2022-09-17T15:56:22.198Z,11.21
2022-09-17T15:58:48.680Z,11.21
2022-09-17T16:01:18.272Z,11.24
2022-09-17T16:03:44.993Z,11.11
2022-09-17T16:06:25.398Z,11.13
2022-09-17T16:08:57.019Z,11.04
2022-09-17T16:11:26.569Z,11.02
2022-09-17T16:13:54.962Z,11.06
2022-09-17T16:16:32.100Z,11.09
2022-09-17T16:18:58.971Z,10.98
2022-09-17T16:21:25.538Z,11.02
2022-09-17T16:23:54.070Z,11.03
2022-09-17T16:26:24.270Z,11.02
2022-09-17T16:28:54.635Z,11.00
2022-09-17T16:31:21.178Z,10.93
2022-09-17T16:33:47.775Z,10.88
2022-09-17T16:36:17.195Z,10.88
2022-09-17T16:38:43.794Z,10.77
2022-09-17T16:41:10.664Z,10.69
2022-09-17T16:43:40.173Z,10.58
2022-09-17T16:46:09.242Z,10.59
2022-09-17T16:48:35.997Z,10.55
2022-09-17T16:51:10.111Z,10.63
2022-09-17T16:53:37.661Z,10.58
2022-09-17T16:56:12.776Z,10.58
2022-09-17T16:58:40.254Z,10.46
2022-09-17T17:01:08.325Z,10.41
2022-09-17T17:03:35.004Z,10.41
2022-09-17T17:06:02.022Z,10.39
2022-09-17T17:08:28.621Z,10.37
2022-09-17T17:10:55.557Z,10.31
2022-09-17T17:13:22.219Z,10.27
2022-09-17T17:15:48.831Z,10.38
2022-09-17T17:18:15.623Z,10.29
2022-09-17T17:20:42.169Z,10.31
2022-09-17T17:23:08.771Z,10.24
2022-09-17T17:25:35.345Z,10.26
2022-09-17T17:28:02.052Z,10.28
2022-09-17T17:30:34.182Z,10.34
2022-09-17T17:33:03.897Z,10.24
2022-09-17T17:35:30.555Z,10.25
2022-09-17T17:37:57.128Z,10.22
2022-09-17T17:40:24.123Z,10.17
2022-09-17T17:42:53.740Z,10.22
2022-09-17T17:45:20.354Z,10.29
2022-09-17T17:47:46.958Z,10.15
2022-09-17T17:50:13.727Z,10.17
2022-09-17T17:52:43.436Z,10.11
2022-09-17T17:55:10.387Z,10.18
2022-09-17T17:57:36.951Z,10.22
2022-09-17T18:00:04.273Z,10.11
2022-09-17T18:02:30.941Z,10.14
2022-09-17T18:05:02.039Z,10.19
2022-09-17T18:07:30.626Z,10.17
2022-09-17T18:09:57.195Z,10.13
2022-09-17T18:12:26.811Z,10.20
2022-09-17T18:14:53.713Z,10.17
2022-09-17T18:17:20.309Z,10.17
2022-09-17T18:19:46.829Z,10.15
2022-09-17T18:22:13.424Z,10.16
2022-09-17T18:24:39.963Z,10.22
2022-09-17T18:27:06.489Z,10.13
2022-09-17T18:29:33.006Z,10.20
2022-09-17T18:31:59.571Z,10.17
2022-09-17T18:34:26.140Z,10.19
2022-09-17T18:36:52.735Z,10.24
2022-09-17T18:39:57.041Z,10.17
2022-09-17T18:42:08.001Z,10.20
2022-09-17T18:44:34.717Z,10.14
2022-09-17T18:47:01.734Z,10.17
2022-09-17T18:49:28.413Z,10.07
2022-09-17T18:51:55.426Z,10.09
2022-09-17T18:54:21.981Z,10.16
2022-09-17T18:56:48.670Z,10.16
2022-09-17T18:59:15.229Z,10.11
2022-09-17T19:01:41.879Z,10.01
2022-09-17T19:04:08.641Z,10.07
2022-09-17T19:06:35.681Z,10.09
2022-09-17T19:09:04.102Z,10.11
2022-09-17T19:11:30.702Z,10.04
2022-09-17T19:13:57.914Z,10.08
2022-09-17T19:16:24.676Z,10.07
2022-09-17T19:18:51.491Z,9.99
2022-09-17T19:21:23.281Z,9.99
2022-09-17T19:23:51.711Z,10.01
2022-09-17T19:26:23.533Z,9.98
2022-09-17T19:28:58.675Z,10.04
2022-09-17T19:31:26.195Z,10.09
2022-09-17T19:33:53.198Z,9.98
2022-09-17T19:36:20.637Z,10.07
2022-09-17T19:38:48.110Z,10.02
2022-09-17T19:41:17.804Z,10.01
2022-09-17T19:43:45.285Z,10.00
2022-09-17T19:46:17.884Z,9.98
2022-09-17T19:48:50.035Z,10.01
2022-09-17T19:51:17.764Z,10.06
2022-09-17T19:53:45.647Z,10.08
2022-09-17T19:56:14.434Z,10.07
2022-09-17T19:58:41.571Z,10.07
2022-09-17T20:01:09.235Z,10.00
2022-09-17T20:03:35.881Z,10.07
2022-09-17T20:06:05.420Z,10.00
2022-09-17T20:08:32.692Z,9.97
2022-09-17T20:11:07.572Z,9.92
2022-09-17T20:13:34.274Z,9.92
2022-09-17T20:16:09.247Z,9.94
2022-09-17T20:18:36.689Z,9.92
2022-09-17T20:21:18.197Z,9.96
2022-09-17T20:23:45.667Z,9.90
2022-09-17T20:26:13.690Z,9.90
2022-09-17T20:28:40.735Z,9.88
2022-09-17T20:31:28.509Z,9.93
2022-09-17T20:33:57.412Z,9.92
2022-09-17T20:36:27.481Z,9.97
2022-09-17T20:39:11.478Z,10.01
2022-09-17T20:41:39.527Z,9.96
2022-09-17T20:44:07.413Z,9.94
2022-09-17T20:46:34.220Z,9.91
2022-09-17T20:49:00.879Z,9.89
2022-09-17T20:51:30.184Z,9.91
2022-09-17T20:53:58.190Z,9.96
2022-09-17T20:56:27.402Z,9.93
2022-09-17T20:59:01.275Z,9.94
2022-09-17T21:01:32.836Z,9.95
2022-09-17T21:04:01.105Z,9.92
2022-09-17T21:06:36.937Z,9.95
2022-09-17T21:09:06.043Z,9.95
2022-09-17T21:11:33.711Z,9.97
2022-09-17T21:14:01.028Z,10.06
2022-09-17T21:16:28.449Z,10.05
2022-09-17T21:18:58.001Z,9.95
2022-09-17T21:21:25.887Z,9.95
2022-09-17T21:23:53.012Z,10.06
2022-09-17T21:26:21.841Z,9.97
2022-09-17T21:28:50.984Z,10.05
2022-09-17T21:31:19.853Z,10.05
2022-09-17T21:33:48.258Z,9.99
2022-09-17T21:36:17.308Z,9.95
2022-09-17T21:38:44.268Z,9.94
2022-09-17T21:41:13.634Z,9.98
2022-09-17T21:43:41.243Z,9.96
2022-09-17T21:46:13.489Z,9.96
2022-09-17T21:48:45.839Z,10.01
2022-09-17T21:51:14.915Z,9.97
2022-09-17T21:53:42.002Z,9.98
2022-09-17T21:56:14.956Z,9.99
2022-09-17T21:58:43.559Z,9.97
2022-09-17T22:01:13.298Z,10.02
2022-09-17T22:03:40.749Z,10.02
2022-09-17T22:06:10.637Z,9.98
2022-09-17T22:08:37.672Z,9.95
2022-09-17T22:11:08.677Z,9.97
2022-09-17T22:13:36.136Z,9.98
2022-09-17T22:16:04.986Z,9.94
2022-09-17T22:18:33.055Z,9.94
2022-09-17T22:21:00.079Z,9.86
2022-09-17T22:23:27.158Z,9.87
2022-09-17T22:26:04.705Z,9.89
2022-09-17T22:28:31.483Z,9.81
2022-09-17T22:31:02.516Z,9.78
2022-09-17T22:33:37.680Z,9.71
2022-09-17T22:36:06.391Z,9.77
2022-09-17T22:38:33.444Z,9.71
2022-09-17T22:41:13.700Z,9.66
2022-09-17T22:43:40.320Z,9.64
2022-09-17T22:46:21.806Z,9.56
2022-09-17T22:48:48.551Z,9.59
2022-09-17T22:51:16.274Z,9.64
2022-09-17T22:53:43.641Z,9.53
2022-09-17T22:56:15.832Z,9.54
2022-09-17T22:58:43.423Z,9.48
2022-09-17T23:01:19.578Z,9.44
2022-09-17T23:03:48.757Z,9.48
2022-09-17T23:06:18.669Z,9.46
2022-09-17T23:08:45.435Z,9.49
2022-09-17T23:11:32.188Z,9.55
2022-09-17T23:14:02.365Z,9.46
2022-09-17T23:16:34.665Z,9.42
2022-09-17T23:19:01.225Z,9.44
2022-09-17T23:21:27.856Z,9.44
2022-09-17T23:23:54.397Z,9.36
2022-09-17T23:26:24.319Z,9.44
2022-09-17T23:28:51.898Z,9.49
2022-09-17T23:31:24.118Z,9.47
2022-09-17T23:33:51.352Z,9.46
2022-09-17T23:36:26.568Z,9.46
2022-09-17T23:38:55.079Z,9.43
2022-09-17T23:41:21.649Z,9.44
2022-09-17T23:43:50.983Z,9.48
2022-09-17T23:46:21.612Z,9.47
2022-09-17T23:48:48.883Z,9.44
2022-09-17T23:51:16.500Z,9.40
2022-09-17T23:53:43.881Z,9.52
2022-09-17T23:56:13.298Z,9.45
2022-09-17T23:58:40.477Z,9.43
